Time;durP1;ratioP1;P1;durP2;ratioP2;P2;SDS_P1;SDS_P2;PMS_P1;PMS_P2;Temp;Humidity;BMP_temperature;BMP_pressure;BME280_temperature;BME280_humidity;BME280_pressure;Samples;Min_cycle;Max_cycle;Signal;HPM_P1;HPM_P2
2022/11/05 00:17:10;;;;;;;2.13;0.40;;;14.10;99.90;;;;;;5099471;28;20210;-87
2022/11/05 00:19:41;;;;;;;0.73;0.40;;;14.10;99.90;;;;;;5097227;28;20622;-87
2022/11/05 00:25:17;;;;;;;0.73;0.43;;;14.10;99.90;;;;;;5112711;28;20232;-88
2022/11/05 00:27:51;;;;;;;1.37;0.30;;;14.10;99.90;;;;;;5115618;28;20208;-86
2022/11/05 00:30:27;;;;;;;2.17;0.40;;;14.20;99.90;;;;;;5115551;28;20647;-86
2022/11/05 00:33:03;;;;;;;0.70;0.30;;;14.20;99.90;;;;;;5114229;28;20226;-85
2022/11/05 00:35:34;;;;;;;1.07;0.40;;;14.10;99.90;;;;;;5107201;28;20277;-87
2022/11/05 00:38:05;;;;;;;1.17;0.40;;;14.10;99.90;;;;;;5095494;28;20195;-87
2022/11/05 00:40:37;;;;;;;1.83;0.40;;;14.10;99.90;;;;;;5108862;28;20285;-87
2022/11/05 00:45:58;;;;;;;0.53;0.30;;;14.20;99.90;;;;;;5114889;28;20236;-90
2022/11/05 00:51:16;;;;;;;0.50;0.30;;;14.20;99.90;;;;;;5093654;28;20207;-86
2022/11/05 00:53:47;;;;;;;0.33;0.20;;;14.20;99.90;;;;;;5099316;28;20314;-86
2022/11/05 00:56:19;;;;;;;0.40;0.30;;;14.20;99.90;;;;;;5098265;28;20944;-85
2022/11/05 00:58:51;;;;;;;1.40;0.50;;;14.30;99.90;;;;;;5102986;28;20289;-87
2022/11/05 01:01:24;;;;;;;0.53;0.27;;;14.30;99.90;;;;;;5079636;28;20293;-87
2022/11/05 01:03:56;;;;;;;3.03;0.40;;;14.30;99.90;;;;;;4748927;28;9999946;-86
2022/11/05 01:06:27;;;;;;;1.13;0.40;;;14.30;99.90;;;;;;5102773;28;20210;-86
2022/11/05 01:08:58;;;;;;;0.50;0.27;;;14.20;99.90;;;;;;5115024;28;20226;-86
2022/11/05 01:11:35;;;;;;;2.87;0.27;;;14.30;99.90;;;;;;5108049;28;20262;-85
2022/11/05 01:14:09;;;;;;;0.40;0.30;;;14.30;99.90;;;;;;5087357;28;20230;-88
2022/11/05 01:16:44;;;;;;;0.43;0.27;;;14.30;99.90;;;;;;5105771;28;20286;-84
2022/11/05 01:19:15;;;;;;;1.83;0.47;;;14.30;99.90;;;;;;5095946;28;20289;-85
2022/11/05 01:21:46;;;;;;;1.03;0.40;;;14.30;99.90;;;;;;5098779;28;20698;-87
2022/11/05 01:24:20;;;;;;;0.33;0.27;;;14.30;99.90;;;;;;5103250;28;20666;-86
2022/11/05 01:26:51;;;;;;;0.50;0.30;;;14.30;99.90;;;;;;5111045;28;20279;-88
2022/11/05 01:29:23;;;;;;;0.77;0.27;;;14.30;99.90;;;;;;5107467;28;20289;-88
2022/11/05 01:31:59;;;;;;;0.97;0.30;;;14.30;99.90;;;;;;5112578;28;20282;-88
2022/11/05 01:34:30;;;;;;;0.37;0.20;;;14.30;99.90;;;;;;5094663;28;20237;-88
2022/11/05 01:37:01;;;;;;;0.70;0.40;;;14.30;99.90;;;;;;5111351;28;20294;-88
2022/11/05 01:39:33;;;;;;;0.47;0.20;;;14.30;99.90;;;;;;5102928;28;20665;-88
2022/11/05 01:42:06;;;;;;;0.60;0.20;;;14.30;99.90;;;;;;5114394;28;20237;-87
2022/11/05 01:45:02;;;;;;;1.33;0.40;;;14.30;99.90;;;;;;5114470;28;20302;-84
2022/11/05 01:48:03;;;;;;;0.20;0.20;;;14.30;99.90;;;;;;5112776;28;20983;-85
2022/11/05 01:50:46;;;;;;;0.60;0.20;;;14.30;99.90;;;;;;5110252;28;20313;-83
2022/11/05 01:53:22;;;;;;;0.47;0.27;;;14.30;99.90;;;;;;5102951;28;20321;-85
2022/11/05 01:55:58;;;;;;;1.60;0.53;;;14.30;99.90;;;;;;5106065;28;21044;-86
2022/11/05 01:58:35;;;;;;;1.80;0.30;;;14.30;99.90;;;;;;5099761;28;20214;-90
2022/11/05 02:01:07;;;;;;;1.57;0.20;;;14.30;99.90;;;;;;5111795;28;20209;-89
2022/11/05 02:03:42;;;;;;;6.20;0.30;;;14.30;99.90;;;;;;5093685;28;20789;-89
2022/11/05 02:06:14;;;;;;;0.70;0.20;;;14.30;99.90;;;;;;5095562;28;20232;-88
2022/11/05 02:08:56;;;;;;;0.30;0.30;;;14.40;99.90;;;;;;5101470;28;20204;-90
2022/11/05 02:11:28;;;;;;;0.30;0.30;;;14.30;99.90;;;;;;5105363;28;20276;-91
2022/11/05 02:13:59;;;;;;;1.33;0.40;;;14.40;99.90;;;;;;5094534;28;20349;-90
2022/11/05 02:16:39;;;;;;;1.10;0.70;;;14.30;99.90;;;;;;5095259;28;20199;-91
2022/11/05 02:20:01;;;;;;;2.17;0.50;;;14.30;99.90;;;;;;5100943;28;20210;-90
2022/11/05 02:23:07;;;;;;;0.80;0.67;;;14.30;99.90;;;;;;5088225;28;20226;-89
2022/11/05 02:26:07;;;;;;;2.23;0.40;;;14.30;99.90;;;;;;5083014;28;20293;-90
2022/11/05 02:29:05;;;;;;;0.80;0.53;;;14.30;99.90;;;;;;5100075;28;20199;-90
2022/11/05 02:31:43;;;;;;;0.77;0.50;;;14.30;99.90;;;;;;5108160;28;20206;-88
2022/11/05 02:34:26;;;;;;;1.13;0.60;;;14.30;99.90;;;;;;5100657;28;20318;-87
2022/11/05 02:37:06;;;;;;;0.43;0.30;;;14.30;99.90;;;;;;5093713;28;20309;-89
2022/11/05 02:39:43;;;;;;;0.73;0.43;;;14.30;99.90;;;;;;5105275;28;20289;-91
2022/11/05 02:42:22;;;;;;;2.53;1.00;;;14.30;99.90;;;;;;5099460;28;20213;-90
2022/11/05 02:44:59;;;;;;;5.07;0.70;;;14.30;99.90;;;;;;5096241;28;20202;-91
2022/11/05 02:47:52;;;;;;;1.27;0.30;;;14.20;99.90;;;;;;5109991;28;20658;-88
2022/11/05 02:50:31;;;;;;;0.20;0.17;;;14.20;99.90;;;;;;5102230;28;20436;-88
2022/11/05 02:53:12;;;;;;;1.13;0.60;;;14.20;99.90;;;;;;5097825;28;20210;-90
2022/11/05 02:55:51;;;;;;;0.33;0.23;;;14.20;99.90;;;;;;5107312;28;20218;-88
2022/11/05 02:58:24;;;;;;;3.20;0.73;;;14.20;99.90;;;;;;5105054;27;20218;-84
2022/11/05 03:00:56;;;;;;;1.37;0.40;;;14.20;99.90;;;;;;5100752;27;20650;-86
2022/11/05 03:03:36;;;;;;;1.90;0.30;;;14.20;99.90;;;;;;5108111;27;20220;-87
2022/11/05 03:06:48;;;;;;;0.47;0.30;;;14.20;99.90;;;;;;5105542;28;20230;-91
2022/11/05 03:09:57;;;;;;;0.57;0.23;;;14.20;99.90;;;;;;4756994;28;10000994;-91
2022/11/05 03:12:40;;;;;;;0.57;0.30;;;14.20;99.90;;;;;;5115969;28;20300;-89
2022/11/05 03:15:19;;;;;;;0.87;0.40;;;14.10;99.90;;;;;;5116179;28;20266;-88
2022/11/05 03:18:02;;;;;;;0.20;0.20;;;14.20;99.90;;;;;;5096011;28;20285;-87
2022/11/05 03:20:45;;;;;;;1.70;0.30;;;14.10;99.90;;;;;;5111636;28;20211;-87
2022/11/05 03:23:26;;;;;;;1.00;0.40;;;14.10;99.90;;;;;;5110116;28;20218;-86
2022/11/05 03:26:09;;;;;;;0.87;0.30;;;14.10;99.90;;;;;;5108081;28;20199;-87
2022/11/05 03:28:49;;;;;;;1.23;0.30;;;14.20;99.90;;;;;;5100392;28;20202;-85
2022/11/05 03:31:21;;;;;;;1.00;0.60;;;14.20;99.90;;;;;;5095858;28;20289;-87
2022/11/05 03:33:54;;;;;;;1.20;0.90;;;14.20;99.90;;;;;;5094383;28;20317;-87
2022/11/05 03:36:39;;;;;;;0.40;0.40;;;14.20;99.90;;;;;;5109265;28;20285;-86
2022/11/05 03:39:14;;;;;;;0.70;0.40;;;14.10;99.90;;;;;;5114579;28;20212;-86
2022/11/05 03:41:50;;;;;;;3.47;0.70;;;14.10;99.90;;;;;;5107987;28;20266;-86
2022/11/05 03:44:26;;;;;;;1.13;0.40;;;14.10;99.90;;;;;;5120905;28;20437;-87
2022/11/05 03:47:03;;;;;;;1.33;0.40;;;14.10;99.90;;;;;;5118923;28;20218;-86
2022/11/05 03:49:39;;;;;;;1.40;0.50;;;14.00;99.90;;;;;;5121074;28;20194;-85
2022/11/05 03:52:18;;;;;;;0.90;0.40;;;14.00;99.90;;;;;;5103250;28;20259;-86
2022/11/05 03:54:49;;;;;;;1.70;0.50;;;14.00;99.90;;;;;;5094622;28;20730;-85
2022/11/05 03:57:22;;;;;;;0.40;0.30;;;14.00;99.90;;;;;;5101979;28;20293;-86
2022/11/05 03:59:54;;;;;;;0.70;0.30;;;14.00;99.90;;;;;;5113430;28;20217;-86
2022/11/05 04:02:30;;;;;;;0.40;0.40;;;14.00;99.90;;;;;;5095820;28;20226;-86
2022/11/05 04:05:02;;;;;;;0.70;0.30;;;14.00;99.90;;;;;;5099544;28;20230;-86
2022/11/05 04:13:26;;;;;;;1.40;0.30;;;14.00;99.90;;;;;;5094597;28;20215;-86
2022/11/05 04:18:45;;;;;;;0.67;0.30;;;14.00;99.90;;;;;;5107074;28;20245;-86
2022/11/05 04:24:09;;;;;;;0.73;0.40;;;13.90;99.90;;;;;;5110040;28;20212;-86
2022/11/05 04:26:42;;;;;;;2.73;0.73;;;13.90;99.90;;;;;;5114995;28;20284;-86
2022/11/05 04:32:01;;;;;;;0.80;0.43;;;13.90;99.90;;;;;;5101572;28;20221;-86
2022/11/05 04:34:32;;;;;;;1.77;0.70;;;13.90;99.90;;;;;;5109247;28;20321;-84
2022/11/05 04:37:04;;;;;;;2.90;0.47;;;13.90;99.90;;;;;;5114704;28;20233;-90
2022/11/05 04:39:38;;;;;;;0.80;0.30;;;13.90;99.90;;;;;;5104297;28;20654;-88
2022/11/05 04:42:10;;;;;;;0.90;0.20;;;13.90;99.90;;;;;;5093430;28;20289;-87
2022/11/05 04:44:41;;;;;;;1.43;0.33;;;13.80;99.90;;;;;;5096045;28;20285;-86
2022/11/05 04:47:13;;;;;;;0.37;0.30;;;13.80;99.90;;;;;;5099550;28;20290;-88
2022/11/05 04:49:46;;;;;;;0.97;0.30;;;13.80;99.90;;;;;;5096664;28;20211;-87
2022/11/05 04:52:17;;;;;;;2.97;0.40;;;13.80;99.90;;;;;;5088313;28;20288;-87
2022/11/05 04:54:50;;;;;;;0.73;0.27;;;13.80;99.90;;;;;;5114470;28;20284;-86
2022/11/05 04:57:22;;;;;;;1.03;0.30;;;13.80;99.90;;;;;;5093955;28;20297;-88
2022/11/05 04:59:53;;;;;;;1.17;0.30;;;13.80;99.90;;;;;;5095437;28;20198;-87
2022/11/05 05:02:26;;;;;;;0.83;0.30;;;13.80;99.90;;;;;;5078831;28;20314;-88
2022/11/05 05:04:57;;;;;;;1.43;0.50;;;13.70;99.90;;;;;;5109202;28;20222;-89
2022/11/05 05:07:29;;;;;;;1.90;0.47;;;13.70;99.90;;;;;;5095951;28;20722;-88
2022/11/05 05:10:02;;;;;;;0.50;0.30;;;13.80;99.90;;;;;;5091350;28;20271;-89
2022/11/05 05:12:34;;;;;;;1.20;0.20;;;13.80;99.90;;;;;;5097561;28;20309;-87
2022/11/05 05:15:06;;;;;;;1.80;0.50;;;13.70;99.90;;;;;;5104424;28;20269;-88
2022/11/05 05:17:37;;;;;;;1.23;0.23;;;13.70;99.90;;;;;;5087242;28;20207;-88
2022/11/05 05:22:57;;;;;;;2.57;0.50;;;13.70;99.90;;;;;;5096618;28;20246;-87
2022/11/05 05:25:30;;;;;;;1.33;0.40;;;13.70;99.90;;;;;;4749766;28;10000386;-89
2022/11/05 05:28:01;;;;;;;1.60;0.40;;;13.70;99.90;;;;;;5094612;28;20250;-88
2022/11/05 05:30:32;;;;;;;2.67;0.50;;;13.70;99.90;;;;;;5092746;28;20289;-88
2022/11/05 05:33:04;;;;;;;3.03;0.63;;;13.70;99.90;;;;;;5106757;28;20210;-88
2022/11/05 05:35:35;;;;;;;5.17;0.87;;;13.60;99.90;;;;;;5107099;28;20340;-88
2022/11/05 05:38:06;;;;;;;7.63;1.40;;;13.30;99.90;;;;;;5100188;28;20210;-87
2022/11/05 05:40:39;;;;;;;7.90;1.70;;;12.80;99.90;;;;;;5101678;28;20203;-86
2022/11/05 05:43:10;;;;;;;6.50;1.53;;;12.00;99.90;;;;;;5100711;28;20290;-86
2022/11/05 05:45:42;;;;;;;11.77;1.93;;;11.50;99.90;;;;;;5124521;28;20653;-87
2022/11/05 05:48:13;;;;;;;10.17;1.70;;;10.90;99.90;;;;;;5098409;28;20239;-86
2022/11/05 05:50:44;;;;;;;11.00;2.20;;;10.30;99.90;;;;;;5105119;28;20269;-86
2022/11/05 05:53:16;;;;;;;10.77;2.10;;;10.10;99.90;;;;;;5100906;28;20242;-87
2022/11/05 05:55:49;;;;;;;7.67;1.87;;;9.90;99.90;;;;;;5106029;28;20314;-88
2022/11/05 05:58:21;;;;;;;9.50;2.13;;;9.80;99.90;;;;;;5123537;28;20669;-87
2022/11/05 06:00:52;;;;;;;9.50;2.07;;;9.70;99.90;;;;;;5113249;28;20217;-87
2022/11/05 06:03:24;;;;;;;15.40;2.70;;;9.60;99.90;;;;;;5099669;28;20634;-87
2022/11/05 06:06:00;;;;;;;9.23;2.33;;;9.50;99.90;;;;;;5104533;28;20289;-87
2022/11/05 06:08:34;;;;;;;10.30;2.20;;;9.50;99.90;;;;;;5099908;28;20203;-87
2022/11/05 06:11:08;;;;;;;9.23;2.00;;;9.50;99.90;;;;;;5117658;28;20289;-87
2022/11/05 06:13:39;;;;;;;9.40;1.97;;;9.40;99.90;;;;;;5104525;28;20236;-87
2022/11/05 06:16:11;;;;;;;12.20;2.23;;;9.30;99.90;;;;;;5104827;28;20716;-86
2022/11/05 06:18:42;;;;;;;9.97;2.30;;;9.30;99.90;;;;;;5098144;27;20297;-88
2022/11/05 06:21:14;;;;;;;8.33;1.77;;;9.20;99.90;;;;;;5096549;28;20293;-86
2022/11/05 06:23:47;;;;;;;8.20;1.87;;;9.10;99.90;;;;;;5119366;27;20285;-87
2022/11/05 06:26:21;;;;;;;7.83;1.80;;;9.10;99.90;;;;;;5109888;28;20214;-87
2022/11/05 06:28:52;;;;;;;13.97;2.43;;;9.00;99.90;;;;;;5096851;28;20633;-88
2022/11/05 06:31:24;;;;;;;10.60;1.67;;;9.10;99.90;;;;;;5088968;28;20576;-87
2022/11/05 06:33:56;;;;;;;8.60;1.97;;;9.10;99.90;;;;;;5109992;28;20223;-85
2022/11/05 06:36:27;;;;;;;9.27;1.50;;;9.10;99.90;;;;;;5120034;28;20242;-85
2022/11/05 06:38:58;;;;;;;8.60;2.13;;;9.20;99.90;;;;;;5103521;28;20232;-87
2022/11/05 06:41:31;;;;;;;6.37;1.53;;;9.20;99.90;;;;;;5103800;28;20245;-87
2022/11/05 06:44:22;;;;;;;11.83;1.63;;;9.20;99.90;;;;;;5106287;28;20564;-87
2022/11/05 06:46:54;;;;;;;7.77;1.93;;;9.30;99.90;;;;;;5111666;28;20289;-87
2022/11/05 06:49:25;;;;;;;8.03;1.70;;;9.40;99.90;;;;;;5119724;27;20215;-89
2022/11/05 06:51:57;;;;;;;7.93;1.50;;;9.40;99.90;;;;;;5126724;27;20269;-91
2022/11/05 06:54:28;;;;;;;11.53;1.43;;;9.40;99.90;;;;;;5102409;28;20265;-88
2022/11/05 06:57:02;;;;;;;8.23;1.97;;;9.40;99.90;;;;;;5115357;28;20234;-88
2022/11/05 06:59:33;;;;;;;6.83;1.20;;;9.40;99.90;;;;;;5113648;28;20301;-88
2022/11/05 07:02:04;;;;;;;9.37;1.60;;;9.40;99.90;;;;;;5103910;28;20285;-88
2022/11/05 07:04:35;;;;;;;11.07;1.40;;;9.50;99.90;;;;;;5113927;27;20718;-88
2022/11/05 07:07:06;;;;;;;12.27;1.90;;;9.50;99.90;;;;;;5117090;28;20633;-88
2022/11/05 07:09:41;;;;;;;9.83;1.80;;;9.50;99.90;;;;;;5111903;28;20210;-88
2022/11/05 07:12:15;;;;;;;8.43;1.70;;;9.60;99.90;;;;;;5113546;27;20201;-88
2022/11/05 07:14:46;;;;;;;8.00;1.50;;;9.60;99.90;;;;;;5102232;28;20226;-87
2022/11/05 07:17:19;;;;;;;8.47;1.53;;;9.60;99.90;;;;;;5096145;28;20245;-89
2022/11/05 07:19:51;;;;;;;7.63;1.60;;;9.60;99.90;;;;;;5113629;28;20293;-88
2022/11/05 07:22:22;;;;;;;9.43;1.90;;;9.70;99.90;;;;;;5099753;28;20604;-88
2022/11/05 07:24:53;;;;;;;6.17;1.40;;;9.70;99.90;;;;;;5087810;28;20202;-87
2022/11/05 07:27:26;;;;;;;6.53;2.00;;;9.70;99.90;;;;;;4748240;28;10000315;-86
2022/11/05 07:29:58;;;;;;;5.37;1.30;;;9.70;99.90;;;;;;5098673;28;20521;-87
2022/11/05 07:32:29;;;;;;;9.87;1.60;;;9.70;99.90;;;;;;5102841;27;20824;-87
2022/11/05 07:35:00;;;;;;;9.07;1.67;;;9.70;99.90;;;;;;5104746;28;20210;-87
2022/11/05 07:37:31;;;;;;;9.40;1.60;;;9.60;99.90;;;;;;5100136;28;20262;-87
2022/11/05 07:40:02;;;;;;;9.43;1.37;;;9.60;99.90;;;;;;5113111;28;20978;-87
2022/11/05 07:42:37;;;;;;;11.77;1.73;;;9.50;99.90;;;;;;5095730;28;20225;-88
2022/11/05 07:45:08;;;;;;;3.40;1.17;;;9.50;99.90;;;;;;5109651;28;20255;-87
2022/11/05 07:47:40;;;;;;;4.93;1.00;;;9.50;99.90;;;;;;5119930;27;20194;-88
2022/11/05 07:50:11;;;;;;;5.40;1.20;;;9.40;99.90;;;;;;5108976;28;20202;-87
2022/11/05 07:52:42;;;;;;;5.63;1.10;;;9.40;99.90;;;;;;5131079;27;20209;-87
2022/11/05 07:55:14;;;;;;;4.50;1.47;;;9.30;99.90;;;;;;5114229;28;20259;-88
2022/11/05 07:57:48;;;;;;;3.63;0.97;;;9.20;99.90;;;;;;5111218;28;20275;-87
2022/11/05 08:00:21;;;;;;;5.47;1.10;;;9.10;99.90;;;;;;5115004;28;20240;-87
2022/11/05 08:03:01;;;;;;;4.80;1.20;;;9.00;99.90;;;;;;5115307;28;20218;-87
2022/11/05 08:05:39;;;;;;;5.10;0.90;;;8.90;99.90;;;;;;5102171;28;20206;-87
2022/11/05 08:08:12;;;;;;;1.77;0.70;;;8.80;99.90;;;;;;5096255;28;20206;-87
2022/11/05 08:10:43;;;;;;;3.40;0.93;;;8.70;99.90;;;;;;5102718;28;20204;-86
2022/11/05 08:13:16;;;;;;;4.47;0.97;;;8.60;99.90;;;;;;5095273;28;20321;-88
2022/11/05 08:15:47;;;;;;;2.87;1.00;;;8.60;99.90;;;;;;5114974;28;20213;-88
2022/11/05 08:18:19;;;;;;;3.40;0.80;;;8.50;99.90;;;;;;5130017;28;20649;-88
2022/11/05 08:20:50;;;;;;;4.20;0.93;;;8.40;99.90;;;;;;5115898;28;20210;-87
2022/11/05 08:23:21;;;;;;;4.93;1.13;;;8.30;99.90;;;;;;5101228;28;20223;-87
2022/11/05 08:25:53;;;;;;;2.43;0.63;;;8.20;99.90;;;;;;5104605;28;20262;-88
2022/11/05 08:28:27;;;;;;;2.40;0.90;;;8.10;99.90;;;;;;5095993;28;20241;-87
2022/11/05 08:30:59;;;;;;;2.27;0.93;;;8.00;99.90;;;;;;5118204;28;20228;-87
2022/11/05 08:33:33;;;;;;;3.00;1.00;;;7.80;99.90;;;;;;5106261;28;20210;-88
2022/11/05 08:36:06;;;;;;;2.97;0.90;;;7.80;99.90;;;;;;5084653;28;20257;-86
2022/11/05 08:38:37;;;;;;;5.47;1.17;;;7.60;99.90;;;;;;5109228;28;20216;-87
2022/11/05 08:41:08;;;;;;;4.50;1.00;;;7.60;99.90;;;;;;5109409;28;20220;-87
2022/11/05 08:43:43;;;;;;;2.70;1.10;;;7.60;99.90;;;;;;5104597;28;20242;-86
2022/11/05 08:46:14;;;;;;;5.67;1.00;;;7.50;99.90;;;;;;5095362;28;20218;-87
2022/11/05 08:48:45;;;;;;;3.83;0.80;;;7.40;99.90;;;;;;5096014;28;20203;-88
2022/11/05 08:51:17;;;;;;;5.07;0.63;;;7.40;99.90;;;;;;5103983;28;20214;-87
2022/11/05 08:53:49;;;;;;;4.03;0.90;;;7.30;99.90;;;;;;5098734;28;20214;-87
2022/11/05 08:56:22;;;;;;;4.63;0.90;;;7.20;99.90;;;;;;5096854;28;20233;-87
2022/11/05 08:58:56;;;;;;;1.77;1.13;;;7.10;99.90;;;;;;5115209;28;20285;-87
2022/11/05 09:01:28;;;;;;;4.73;0.93;;;7.00;99.90;;;;;;5106139;28;20639;-87
2022/11/05 09:04:00;;;;;;;2.93;1.13;;;7.00;99.90;;;;;;5093542;28;20264;-88
2022/11/05 09:06:31;;;;;;;3.60;0.90;;;6.90;99.90;;;;;;5095443;28;20728;-88
2022/11/05 09:09:02;;;;;;;1.80;0.93;;;6.90;99.90;;;;;;5100051;28;20297;-87
2022/11/05 09:11:33;;;;;;;5.13;1.10;;;6.80;99.90;;;;;;5099675;28;20565;-88
2022/11/05 09:14:26;;;;;;;1.80;0.80;;;6.80;99.90;;;;;;5101429;28;20286;-87
2022/11/05 09:16:57;;;;;;;2.77;1.00;;;6.80;99.90;;;;;;5109640;28;20654;-87
2022/11/05 09:19:28;;;;;;;4.50;1.10;;;6.70;99.90;;;;;;5077624;28;20285;-87
2022/11/05 09:21:59;;;;;;;5.13;1.00;;;6.70;99.90;;;;;;5108214;28;20301;-87
2022/11/05 09:24:30;;;;;;;2.80;0.90;;;6.60;99.90;;;;;;5096017;28;20212;-87
2022/11/05 09:27:04;;;;;;;4.50;1.00;;;6.60;99.90;;;;;;5101234;28;20213;-87
2022/11/05 09:29:37;;;;;;;3.23;0.80;;;6.50;99.90;;;;;;5119395;28;20206;-87
2022/11/05 09:32:10;;;;;;;2.77;1.03;;;6.50;99.90;;;;;;5129016;28;20198;-87
2022/11/05 09:34:43;;;;;;;2.43;1.13;;;6.40;99.90;;;;;;5133983;28;20198;-86
2022/11/05 09:37:15;;;;;;;5.40;1.10;;;6.30;99.90;;;;;;5127317;28;20698;-89
2022/11/05 09:39:48;;;;;;;4.60;1.03;;;6.30;99.90;;;;;;5095136;28;20194;-87
2022/11/05 09:42:25;;;;;;;4.10;0.97;;;6.30;99.90;;;;;;5100606;28;20210;-86
2022/11/05 09:45:02;;;;;;;3.73;1.03;;;6.20;99.90;;;;;;5096522;28;20234;-87
2022/11/05 09:47:40;;;;;;;4.30;1.07;;;6.10;99.90;;;;;;5106591;28;20201;-86
2022/11/05 09:50:16;;;;;;;5.37;1.10;;;6.10;99.90;;;;;;5096347;28;20212;-87
2022/11/05 09:52:48;;;;;;;5.70;1.10;;;6.00;99.90;;;;;;5115000;28;20213;-88
2022/11/05 09:55:24;;;;;;;3.93;1.30;;;6.00;99.90;;;;;;5118431;28;20293;-86
2022/11/05 09:58:01;;;;;;;3.10;0.87;;;5.80;99.90;;;;;;5115715;28;20332;-87
2022/11/05 10:00:35;;;;;;;7.33;1.00;;;5.80;99.90;;;;;;5106099;28;20286;-87
2022/11/05 10:03:11;;;;;;;6.37;1.10;;;6.00;99.90;;;;;;5117454;28;20222;-88
2022/11/05 10:05:53;;;;;;;6.83;1.70;;;6.10;99.90;;;;;;5113115;28;20207;-87
2022/11/05 10:08:29;;;;;;;4.83;1.40;;;6.20;99.90;;;;;;5110516;28;20213;-87
2022/11/05 10:11:06;;;;;;;6.63;1.50;;;6.20;99.90;;;;;;5120735;28;20241;-85
2022/11/05 10:13:45;;;;;;;6.17;1.10;;;6.10;99.90;;;;;;5117651;28;20221;-86
2022/11/05 10:16:24;;;;;;;4.87;1.10;;;6.10;99.90;;;;;;5111749;28;20628;-87
2022/11/05 10:19:02;;;;;;;7.33;1.30;;;6.10;99.90;;;;;;5100049;28;20230;-87
2022/11/05 10:21:33;;;;;;;5.97;1.33;;;6.10;99.90;;;;;;5097874;28;20260;-86
2022/11/05 10:24:25;;;;;;;4.23;1.30;;;6.10;99.90;;;;;;5095554;28;20203;-87
2022/11/05 10:26:57;;;;;;;8.43;1.40;;;6.10;99.90;;;;;;5115049;28;20288;-87
2022/11/05 10:29:31;;;;;;;3.77;1.10;;;6.20;99.90;;;;;;5108300;28;20191;-88
2022/11/05 10:32:08;;;;;;;6.43;1.30;;;6.10;99.90;;;;;;5137753;28;20233;-87
2022/11/05 10:34:41;;;;;;;4.13;1.00;;;6.00;99.90;;;;;;5139197;28;20213;-87
2022/11/05 10:37:12;;;;;;;6.67;1.70;;;5.90;99.90;;;;;;5117127;28;20310;-88
2022/11/05 10:39:43;;;;;;;5.53;1.53;;;5.80;99.90;;;;;;5116088;28;20210;-87
2022/11/05 10:42:45;;;;;;;8.70;1.83;;;5.80;99.90;;;;;;5115547;28;20713;-87
2022/11/05 10:45:24;;;;;;;6.83;1.47;;;5.80;99.90;;;;;;5110052;28;20210;-88
2022/11/05 10:48:24;;;;;;;6.77;1.50;;;5.60;99.90;;;;;;5111925;28;20284;-86
2022/11/05 10:50:58;;;;;;;9.40;1.80;;;5.60;99.90;;;;;;5096969;28;20250;-87
2022/11/05 10:53:36;;;;;;;10.03;1.47;;;5.90;99.90;;;;;;5096051;28;20570;-87
2022/11/05 10:56:31;;;;;;;5.37;1.07;;;5.90;99.90;;;;;;5098726;28;20242;-86
2022/11/05 10:59:08;;;;;;;7.33;1.10;;;5.90;99.90;;;;;;5112417;28;20600;-87
2022/11/05 11:01:42;;;;;;;3.20;1.30;;;5.90;99.90;;;;;;5096889;28;20238;-87
2022/11/05 11:04:26;;;;;;;4.57;0.90;;;5.90;99.90;;;;;;5107910;28;20722;-87
2022/11/05 11:07:04;;;;;;;5.30;1.47;;;5.80;99.90;;;;;;5105015;28;20264;-87
2022/11/05 11:09:37;;;;;;;7.63;1.20;;;5.70;99.90;;;;;;5102872;28;20203;-87
2022/11/05 11:12:16;;;;;;;5.80;1.50;;;5.70;99.90;;;;;;5095773;28;20755;-87
2022/11/05 11:15:02;;;;;;;6.80;1.50;;;5.70;99.90;;;;;;5097715;28;20214;-87
2022/11/05 11:17:35;;;;;;;4.80;1.50;;;5.60;99.90;;;;;;5114417;28;20254;-88
2022/11/05 11:20:27;;;;;;;6.30;1.50;;;5.60;99.90;;;;;;5105223;28;20252;-86
2022/11/05 11:23:02;;;;;;;9.13;1.70;;;5.60;99.90;;;;;;5095401;28;20199;-87
2022/11/05 11:25:40;;;;;;;8.77;1.57;;;5.60;99.90;;;;;;5099680;28;20275;-87
2022/11/05 11:28:19;;;;;;;6.90;2.40;;;5.50;99.90;;;;;;5079277;28;20651;-87
2022/11/05 11:30:56;;;;;;;5.27;1.13;;;5.50;99.90;;;;;;5107100;28;20259;-87
2022/11/05 11:33:29;;;;;;;9.07;1.93;;;5.40;99.90;;;;;;5098980;28;20216;-87
2022/11/05 11:36:03;;;;;;;7.17;1.50;;;5.30;99.90;;;;;;5106895;28;20206;-88
2022/11/05 11:38:36;;;;;;;4.87;1.50;;;5.30;99.90;;;;;;5089051;28;20231;-86
2022/11/05 11:41:26;;;;;;;6.43;1.53;;;5.20;99.90;;;;;;5124848;28;20270;-86
2022/11/05 11:44:02;;;;;;;7.73;1.90;;;5.20;99.90;;;;;;5124281;28;20209;-86
2022/11/05 11:46:36;;;;;;;5.80;2.03;;;5.20;99.90;;;;;;5095987;28;20202;-87
2022/11/05 11:49:08;;;;;;;7.57;2.00;;;5.10;99.90;;;;;;5114825;28;20293;-86
2022/11/05 11:51:43;;;;;;;5.03;2.13;;;5.10;99.90;;;;;;5095801;28;20209;-87
2022/11/05 11:54:22;;;;;;;7.30;2.00;;;5.10;99.90;;;;;;5108651;28;20198;-87
2022/11/05 11:56:58;;;;;;;7.87;1.93;;;5.00;99.90;;;;;;5095737;28;20221;-87
2022/11/05 11:59:30;;;;;;;10.03;2.63;;;5.00;99.90;;;;;;5095306;28;20234;-86
2022/11/05 12:03:04;;;;;;;5.23;1.97;;;5.00;99.90;;;;;;5094758;28;20213;-86
2022/11/05 12:05:42;;;;;;;9.70;2.60;;;5.00;99.90;;;;;;5012192;28;20248;-86
2022/11/05 12:08:30;;;;;;;11.67;1.83;;;5.00;99.90;;;;;;5101343;28;20216;-86
2022/11/05 12:11:08;;;;;;;10.97;1.80;;;4.80;99.90;;;;;;5110618;28;20281;-85
2022/11/05 12:13:56;;;;;;;10.60;1.73;;;4.80;99.90;;;;;;5096992;28;20202;-87
2022/11/05 12:16:54;;;;;;;10.90;2.13;;;4.90;99.90;;;;;;5111012;28;20199;-87
2022/11/05 12:19:34;;;;;;;10.53;1.67;;;5.10;99.90;;;;;;5098459;28;20269;-88
2022/11/05 12:22:13;;;;;;;10.23;1.33;;;5.20;99.90;;;;;;5106291;28;20698;-86
2022/11/05 12:24:59;;;;;;;5.30;1.00;;;5.30;99.90;;;;;;5102856;28;20627;-88
2022/11/05 12:27:46;;;;;;;7.50;1.43;;;5.60;99.90;;;;;;5116448;28;20285;-89
2022/11/05 12:30:18;;;;;;;7.30;1.90;;;5.70;99.90;;;;;;5093022;28;20416;-88
2022/11/05 12:33:12;;;;;;;8.03;1.50;;;5.80;99.90;;;;;;5095565;28;20609;-87
2022/11/05 12:36:03;;;;;;;8.27;1.70;;;5.90;99.90;;;;;;5110946;28;20267;-88
2022/11/05 12:39:00;;;;;;;7.20;1.93;;;5.90;99.90;;;;;;5128607;28;20216;-88
2022/11/05 12:41:39;;;;;;;7.97;1.63;;;5.90;99.90;;;;;;5125003;28;20183;-87
2022/11/05 12:44:28;;;;;;;8.97;1.87;;;6.00;99.90;;;;;;5127805;28;20229;-87
2022/11/05 12:47:16;;;;;;;10.50;1.87;;;6.00;99.90;;;;;;5101731;28;20218;-87
2022/11/05 12:50:00;;;;;;;7.80;1.50;;;5.90;99.90;;;;;;5109384;28;20198;-88
2022/11/05 12:53:01;;;;;;;8.37;1.67;;;5.90;99.90;;;;;;5101412;28;20206;-85
2022/11/05 12:55:38;;;;;;;8.30;1.83;;;5.90;99.90;;;;;;5092685;28;20297;-86
2022/11/05 12:58:21;;;;;;;10.43;1.70;;;5.80;99.90;;;;;;5109257;28;20214;-86
2022/11/05 13:00:56;;;;;;;6.63;1.63;;;5.70;99.90;;;;;;5111285;28;20211;-87
2022/11/05 13:03:38;;;;;;;11.90;1.80;;;5.70;99.90;;;;;;5119057;28;20289;-86
2022/11/05 13:06:14;;;;;;;10.30;1.47;;;5.70;99.90;;;;;;5099912;28;20199;-87
2022/11/05 13:08:56;;;;;;;10.63;2.00;;;5.70;99.90;;;;;;5099374;28;20668;-86
2022/11/05 13:11:34;;;;;;;7.83;1.40;;;5.60;99.90;;;;;;5115377;28;20214;-86
2022/11/05 13:14:13;;;;;;;7.90;1.50;;;5.70;99.90;;;;;;5114427;28;20686;-87
2022/11/05 13:16:47;;;;;;;12.13;1.70;;;5.70;99.90;;;;;;5101775;28;20297;-86
2022/11/05 13:19:23;;;;;;;8.17;1.43;;;5.70;99.90;;;;;;5096865;28;20233;-86
2022/11/05 13:21:58;;;;;;;11.53;2.07;;;5.60;99.90;;;;;;5103793;28;20258;-86
2022/11/05 13:24:35;;;;;;;11.73;1.60;;;5.60;99.90;;;;;;5113304;28;20201;-86
2022/11/05 13:27:30;;;;;;;8.23;1.73;;;5.50;99.90;;;;;;5106632;28;20289;-87
2022/11/05 13:30:06;;;;;;;19.13;1.70;;;5.50;99.90;;;;;;5114786;28;20715;-87
2022/11/05 13:32:39;;;;;;;11.50;1.80;;;5.50;99.90;;;;;;5097261;28;20211;-87
2022/11/05 13:35:18;;;;;;;7.40;1.53;;;5.40;99.90;;;;;;5114127;28;20205;-87
2022/11/05 13:40:51;;;;;;;13.03;2.30;;;5.30;99.90;;;;;;5113852;28;20353;-87
2022/11/05 13:43:56;;;;;;;10.33;1.73;;;5.30;99.90;;;;;;5113169;28;20306;-87
2022/11/05 13:46:51;;;;;;;7.13;1.60;;;5.20;99.90;;;;;;5103202;28;20702;-88
2022/11/05 13:50:02;;;;;;;5.23;1.60;;;5.20;99.90;;;;;;5102487;28;20195;-87
2022/11/05 13:52:58;;;;;;;7.83;1.57;;;5.20;99.90;;;;;;5109607;28;20206;-87
2022/11/05 13:55:51;;;;;;;5.23;1.43;;;5.10;99.90;;;;;;5113811;28;20232;-87
2022/11/05 13:58:50;;;;;;;9.60;1.93;;;5.10;99.90;;;;;;5113592;28;20293;-85
2022/11/05 14:01:40;;;;;;;6.97;1.83;;;5.20;99.90;;;;;;5099449;28;20683;-87
2022/11/05 14:04:29;;;;;;;7.97;2.00;;;5.30;99.90;;;;;;5088388;28;20668;-87
2022/11/05 14:07:12;;;;;;;9.13;2.20;;;5.30;99.90;;;;;;5095974;28;20203;-87
2022/11/05 14:09:44;;;;;;;8.07;1.87;;;5.40;99.90;;;;;;5105729;28;20238;-88
2022/11/05 14:12:25;;;;;;;6.87;1.43;;;5.50;99.90;;;;;;5114462;28;21123;-86
2022/11/05 14:15:03;;;;;;;6.07;1.60;;;5.50;99.90;;;;;;5100526;28;20199;-87
2022/11/05 14:17:54;;;;;;;6.20;1.40;;;5.50;99.90;;;;;;5098267;28;20265;-88
2022/11/05 14:20:45;;;;;;;7.13;1.63;;;5.60;99.90;;;;;;5096309;28;20241;-87
2022/11/05 14:23:41;;;;;;;11.20;2.47;;;5.60;99.90;;;;;;5106236;28;20201;-87
2022/11/05 14:26:24;;;;;;;7.23;1.27;;;5.60;99.90;;;;;;5100194;28;20234;-87